Etusivu
METAR-TAF:

METAR-TAF

Lentoasemat :

Atlantic, Iowa, Yhdysvallat

Leveyspiiri: 41-24N, Pituuspiiri: 095-03W, korkeus merenpinnasta: 360 m

Tämänhetkinen sää

Tämä raportti tehtiin 51 minuuttia sitten, kello 13.55 UTC
Tuuli 5 kn pohjoisesta
Lämpötila 15°C
Kosteus 82%
Ilmanpaine 1011 hPa
Näkyvyys: 14.5 km
Hajanaisia pilviä 5000 ft:n korkeudessa
Hajonneita pilviä 9000 ft:n korkeudessa
heikkoa sadetta

METAR: KAIO 271355Z AUTO 35005KT 9SM -RA SCT050 BKN090 15/12 A2986 RMK AO2 P0001

Aika: 09:46 (14:46 UTC)


TAF: puuttuu

Säähavainnot ja -ennusteet yli 4000 lentoasemalta (METAR- ja TAF-raportit).

Käytössä olevat sääasemat on merkitty karttaan keltaisilla ja punaisilla pisteillä.

Aseta hiiri pisteen päälle nähdäksesi sääaseman nimen.

Klikkaa sitten nähdäksesi säähavainnot ja -ennusteet.

Kartan vaihtaminen: klikkaa mustalla rastilla varustettuja vihreitä pisteitä, niin voit zoomata sisään; viivalla varustettua vihreää pistettä, niin voit zoomata ulos tai vihreitä nuolia, niin pääset viereisille kartoille.


METAR-TAF: